sensor_id;sensor_type;location;lat;lon;timestamp;P1;durP1;ratioP1;P2;durP2;ratioP2
26474;SDS011;14161;52.270;10.334;2023-01-31T08:39:13;18.55;;;6.05;;
26474;SDS011;14161;52.270;10.334;2023-01-31T08:48:11;26.23;;;6.95;;
26474;SDS011;14161;52.270;10.334;2023-01-31T08:50:37;23.85;;;6.65;;
26474;SDS011;14161;52.270;10.334;2023-01-31T08:53:02;23.70;;;7.10;;
26474;SDS011;14161;52.270;10.334;2023-01-31T08:55:29;21.80;;;6.30;;
26474;SDS011;14161;52.270;10.334;2023-01-31T08:57:55;24.77;;;6.40;;
26474;SDS011;14161;52.270;10.334;2023-01-31T09:00:24;24.35;;;6.55;;
26474;SDS011;14161;52.270;10.334;2023-01-31T09:02:50;21.25;;;6.15;;
26474;SDS011;14161;52.270;10.334;2023-01-31T09:05:19;16.35;;;6.53;;
26474;SDS011;14161;52.270;10.334;2023-01-31T09:07:45;34.35;;;6.30;;
26474;SDS011;14161;52.270;10.334;2023-01-31T09:10:11;20.75;;;5.68;;
26474;SDS011;14161;52.270;10.334;2023-01-31T09:12:36;22.48;;;6.50;;
26474;SDS011;14161;52.270;10.334;2023-01-31T09:15:02;26.20;;;6.03;;
26474;SDS011;14161;52.270;10.334;2023-01-31T09:17:28;16.20;;;5.97;;
26474;SDS011;14161;52.270;10.334;2023-01-31T09:23:42;16.63;;;5.47;;
26474;SDS011;14161;52.270;10.334;2023-01-31T09:26:07;18.75;;;5.38;;
26474;SDS011;14161;52.270;10.334;2023-01-31T09:28:33;21.25;;;5.82;;
26474;SDS011;14161;52.270;10.334;2023-01-31T09:31:06;19.52;;;5.53;;
26474;SDS011;14161;52.270;10.334;2023-01-31T09:33:33;13.02;;;4.40;;
26474;SDS011;14161;52.270;10.334;2023-01-31T09:36:06;22.38;;;6.38;;
26474;SDS011;14161;52.270;10.334;2023-01-31T09:38:37;26.60;;;6.65;;
26474;SDS011;14161;52.270;10.334;2023-01-31T09:41:04;26.30;;;6.60;;
26474;SDS011;14161;52.270;10.334;2023-01-31T09:43:35;19.17;;;6.93;;
26474;SDS011;14161;52.270;10.334;2023-01-31T09:46:03;20.55;;;6.05;;
26474;SDS011;14161;52.270;10.334;2023-01-31T09:48:31;13.95;;;6.32;;
26474;SDS011;14161;52.270;10.334;2023-01-31T09:50:59;16.55;;;5.10;;
26474;SDS011;14161;52.270;10.334;2023-01-31T09:53:29;14.55;;;5.72;;
26474;SDS011;14161;52.270;10.334;2023-01-31T10:01:59;30.20;;;7.40;;
26474;SDS011;14161;52.270;10.334;2023-01-31T10:10:12;22.95;;;7.05;;
26474;SDS011;14161;52.270;10.334;2023-01-31T10:12:47;18.90;;;7.18;;
26474;SDS011;14161;52.270;10.334;2023-01-31T10:15:17;21.23;;;8.82;;
26474;SDS011;14161;52.270;10.334;2023-01-31T10:17:51;31.42;;;8.43;;
26474;SDS011;14161;52.270;10.334;2023-01-31T10:20:37;19.77;;;8.23;;
26474;SDS011;14161;52.270;10.334;2023-01-31T10:23:07;19.45;;;7.68;;
26474;SDS011;14161;52.270;10.334;2023-01-31T10:25:52;23.00;;;8.98;;
26474;SDS011;14161;52.270;10.334;2023-01-31T10:38:59;19.98;;;7.47;;
26474;SDS011;14161;52.270;10.334;2023-01-31T10:47:19;13.68;;;6.80;;
26474;SDS011;14161;52.270;10.334;2023-01-31T10:49:49;15.82;;;6.05;;
26474;SDS011;14161;52.270;10.334;2023-01-31T10:57:58;14.25;;;6.65;;
26474;SDS011;14161;52.270;10.334;2023-01-31T11:00:30;11.02;;;6.15;;
26474;SDS011;14161;52.270;10.334;2023-01-31T11:02:57;12.25;;;5.28;;
26474;SDS011;14161;52.270;10.334;2023-01-31T11:05:23;10.93;;;5.38;;
26474;SDS011;14161;52.270;10.334;2023-01-31T11:07:49;13.35;;;5.65;;
26474;SDS011;14161;52.270;10.334;2023-01-31T11:10:25;16.13;;;5.30;;
26474;SDS011;14161;52.270;10.334;2023-01-31T11:12:54;11.55;;;4.25;;
26474;SDS011;14161;52.270;10.334;2023-01-31T11:15:22;8.85;;;4.43;;
26474;SDS011;14161;52.270;10.334;2023-01-31T11:17:49;8.90;;;4.68;;
26474;SDS011;14161;52.270;10.334;2023-01-31T11:20:18;11.50;;;3.80;;
26474;SDS011;14161;52.270;10.334;2023-01-31T11:22:45;8.68;;;3.95;;
26474;SDS011;14161;52.270;10.334;2023-01-31T11:31:43;13.02;;;4.70;;
26474;SDS011;14161;52.270;10.334;2023-01-31T11:34:28;8.35;;;3.90;;
26474;SDS011;14161;52.270;10.334;2023-01-31T11:37:14;9.00;;;3.60;;
26474;SDS011;14161;52.270;10.334;2023-01-31T11:42:28;9.70;;;3.53;;
26474;SDS011;14161;52.270;10.334;2023-01-31T11:47:37;5.53;;;3.35;;
26474;SDS011;14161;52.270;10.334;2023-01-31T11:50:44;9.38;;;4.47;;
26474;SDS011;14161;52.270;10.334;2023-01-31T11:53:56;7.65;;;4.47;;
26474;SDS011;14161;52.270;10.334;2023-01-31T11:56:25;9.55;;;4.45;;
26474;SDS011;14161;52.270;10.334;2023-01-31T11:58:53;7.70;;;3.45;;
26474;SDS011;14161;52.270;10.334;2023-01-31T12:01:30;7.07;;;3.53;;
26474;SDS011;14161;52.270;10.334;2023-01-31T12:04:14;9.23;;;4.15;;
26474;SDS011;14161;52.270;10.334;2023-01-31T12:06:58;12.88;;;4.22;;
26474;SDS011;14161;52.270;10.334;2023-01-31T12:09:39;11.18;;;4.28;;
26474;SDS011;14161;52.270;10.334;2023-01-31T12:12:20;11.40;;;4.40;;
26474;SDS011;14161;52.270;10.334;2023-01-31T12:15:00;13.55;;;5.18;;
26474;SDS011;14161;52.270;10.334;2023-01-31T12:17:28;11.05;;;4.57;;
26474;SDS011;14161;52.270;10.334;2023-01-31T12:23:08;10.65;;;5.05;;
26474;SDS011;14161;52.270;10.334;2023-01-31T12:25:41;10.65;;;4.88;;
26474;SDS011;14161;52.270;10.334;2023-01-31T12:28:36;13.45;;;5.20;;
26474;SDS011;14161;52.270;10.334;2023-01-31T12:31:31;14.63;;;5.78;;
26474;SDS011;14161;52.270;10.334;2023-01-31T12:37:23;11.60;;;5.10;;
26474;SDS011;14161;52.270;10.334;2023-01-31T12:40:00;10.65;;;5.13;;
26474;SDS011;14161;52.270;10.334;2023-01-31T12:50:49;9.95;;;5.47;;
26474;SDS011;14161;52.270;10.334;2023-01-31T12:56:11;18.90;;;6.80;;
26474;SDS011;14161;52.270;10.334;2023-01-31T12:58:45;13.52;;;7.05;;
26474;SDS011;14161;52.270;10.334;2023-01-31T13:01:15;13.60;;;6.93;;
26474;SDS011;14161;52.270;10.334;2023-01-31T13:07:54;12.95;;;6.60;;
26474;SDS011;14161;52.270;10.334;2023-01-31T13:10:28;13.45;;;6.22;;
26474;SDS011;14161;52.270;10.334;2023-01-31T13:16:57;12.38;;;7.28;;
26474;SDS011;14161;52.270;10.334;2023-01-31T13:19:29;19.85;;;8.38;;
26474;SDS011;14161;52.270;10.334;2023-01-31T13:25:37;16.75;;;8.02;;
26474;SDS011;14161;52.270;10.334;2023-01-31T13:28:15;16.10;;;9.55;;
26474;SDS011;14161;52.270;10.334;2023-01-31T13:30:56;14.27;;;8.32;;
26474;SDS011;14161;52.270;10.334;2023-01-31T13:33:28;20.60;;;10.38;;
26474;SDS011;14161;52.270;10.334;2023-01-31T13:36:05;18.05;;;9.50;;
26474;SDS011;14161;52.270;10.334;2023-01-31T13:38:36;18.15;;;10.73;;
26474;SDS011;14161;52.270;10.334;2023-01-31T13:41:04;20.85;;;11.50;;
26474;SDS011;14161;52.270;10.334;2023-01-31T13:43:31;17.33;;;10.27;;
26474;SDS011;14161;52.270;10.334;2023-01-31T13:45:57;17.73;;;10.10;;
26474;SDS011;14161;52.270;10.334;2023-01-31T13:51:00;17.58;;;11.02;;
26474;SDS011;14161;52.270;10.334;2023-01-31T13:53:30;19.05;;;10.27;;
26474;SDS011;14161;52.270;10.334;2023-01-31T13:55:59;15.90;;;9.55;;
26474;SDS011;14161;52.270;10.334;2023-01-31T13:58:27;19.75;;;9.95;;
26474;SDS011;14161;52.270;10.334;2023-01-31T14:01:01;18.95;;;10.25;;
26474;SDS011;14161;52.270;10.334;2023-01-31T14:03:29;17.13;;;9.32;;
26474;SDS011;14161;52.270;10.334;2023-01-31T14:05:56;17.40;;;10.02;;
26474;SDS011;14161;52.270;10.334;2023-01-31T14:08:27;15.43;;;8.93;;
26474;SDS011;14161;52.270;10.334;2023-01-31T14:10:55;18.17;;;8.98;;
26474;SDS011;14161;52.270;10.334;2023-01-31T14:27:19;10.15;;;7.30;;
26474;SDS011;14161;52.270;10.334;2023-01-31T14:35:26;9.23;;;6.10;;
26474;SDS011;14161;52.270;10.334;2023-01-31T14:51:49;6.13;;;4.90;;
26474;SDS011;14161;52.270;10.334;2023-01-31T14:54:32;8.38;;;4.68;;
26474;SDS011;14161;52.270;10.334;2023-01-31T14:57:18;7.55;;;5.13;;
26474;SDS011;14161;52.270;10.334;2023-01-31T14:59:51;7.18;;;5.15;;
26474;SDS011;14161;52.270;10.334;2023-01-31T15:04:55;7.93;;;5.00;;
26474;SDS011;14161;52.270;10.334;2023-01-31T15:07:22;5.20;;;4.13;;
26474;SDS011;14161;52.270;10.334;2023-01-31T15:09:47;7.40;;;4.75;;
26474;SDS011;14161;52.270;10.334;2023-01-31T15:15:23;6.43;;;4.78;;
26474;SDS011;14161;52.270;10.334;2023-01-31T15:18:17;5.25;;;4.30;;
26474;SDS011;14161;52.270;10.334;2023-01-31T15:20:46;6.25;;;4.75;;
26474;SDS011;14161;52.270;10.334;2023-01-31T15:23:19;7.63;;;4.88;;
26474;SDS011;14161;52.270;10.334;2023-01-31T15:25:47;6.85;;;4.28;;
26474;SDS011;14161;52.270;10.334;2023-01-31T15:28:16;6.18;;;4.75;;
26474;SDS011;14161;52.270;10.334;2023-01-31T15:30:44;6.72;;;4.97;;
26474;SDS011;14161;52.270;10.334;2023-01-31T15:33:21;8.25;;;5.10;;
26474;SDS011;14161;52.270;10.334;2023-01-31T15:38:27;5.97;;;5.38;;
26474;SDS011;14161;52.270;10.334;2023-01-31T15:43:46;7.63;;;5.40;;
26474;SDS011;14161;52.270;10.334;2023-01-31T15:46:30;8.52;;;5.03;;
26474;SDS011;14161;52.270;10.334;2023-01-31T15:48:57;6.97;;;5.25;;
26474;SDS011;14161;52.270;10.334;2023-01-31T15:51:23;7.78;;;5.57;;
26474;SDS011;14161;52.270;10.334;2023-01-31T15:53:59;8.80;;;6.22;;
26474;SDS011;14161;52.270;10.334;2023-01-31T15:56:30;8.75;;;6.25;;
26474;SDS011;14161;52.270;10.334;2023-01-31T15:58:56;7.00;;;5.22;;
26474;SDS011;14161;52.270;10.334;2023-01-31T16:01:22;10.38;;;6.85;;
26474;SDS011;14161;52.270;10.334;2023-01-31T16:03:52;8.85;;;6.47;;
26474;SDS011;14161;52.270;10.334;2023-01-31T16:08:53;8.35;;;6.35;;
26474;SDS011;14161;52.270;10.334;2023-01-31T16:11:20;10.35;;;6.65;;
26474;SDS011;14161;52.270;10.334;2023-01-31T16:13:46;12.18;;;7.25;;
26474;SDS011;14161;52.270;10.334;2023-01-31T16:16:12;14.75;;;7.30;;
26474;SDS011;14161;52.270;10.334;2023-01-31T16:18:38;10.88;;;7.88;;
26474;SDS011;14161;52.270;10.334;2023-01-31T16:21:14;10.45;;;7.00;;
26474;SDS011;14161;52.270;10.334;2023-01-31T16:23:47;12.10;;;6.25;;
26474;SDS011;14161;52.270;10.334;2023-01-31T16:26:47;9.70;;;6.93;;
26474;SDS011;14161;52.270;10.334;2023-01-31T16:29:16;9.45;;;6.95;;
26474;SDS011;14161;52.270;10.334;2023-01-31T16:32:01;8.15;;;5.90;;
26474;SDS011;14161;52.270;10.334;2023-01-31T16:34:27;13.57;;;8.02;;
26474;SDS011;14161;52.270;10.334;2023-01-31T16:37:04;9.95;;;7.40;;
26474;SDS011;14161;52.270;10.334;2023-01-31T16:39:52;9.85;;;7.40;;
26474;SDS011;14161;52.270;10.334;2023-01-31T16:44:45;9.90;;;7.00;;
26474;SDS011;14161;52.270;10.334;2023-01-31T16:52:39;10.97;;;7.63;;
26474;SDS011;14161;52.270;10.334;2023-01-31T16:55:12;8.88;;;7.38;;
26474;SDS011;14161;52.270;10.334;2023-01-31T16:57:39;12.25;;;8.40;;
26474;SDS011;14161;52.270;10.334;2023-01-31T17:00:05;9.23;;;4.85;;
26474;SDS011;14161;52.270;10.334;2023-01-31T17:02:46;4.28;;;2.80;;
26474;SDS011;14161;52.270;10.334;2023-01-31T17:08:03;6.78;;;4.75;;
26474;SDS011;14161;52.270;10.334;2023-01-31T17:10:30;9.45;;;3.70;;
26474;SDS011;14161;52.270;10.334;2023-01-31T17:13:04;4.65;;;2.38;;
26474;SDS011;14161;52.270;10.334;2023-01-31T17:15:34;7.95;;;2.58;;
26474;SDS011;14161;52.270;10.334;2023-01-31T17:18:00;6.07;;;2.10;;
26474;SDS011;14161;52.270;10.334;2023-01-31T17:20:25;4.05;;;1.88;;
26474;SDS011;14161;52.270;10.334;2023-01-31T17:22:51;6.88;;;2.17;;
26474;SDS011;14161;52.270;10.334;2023-01-31T17:25:21;4.38;;;1.70;;
26474;SDS011;14161;52.270;10.334;2023-01-31T17:27:48;3.70;;;1.65;;
26474;SDS011;14161;52.270;10.334;2023-01-31T17:30:16;9.35;;;1.83;;
26474;SDS011;14161;52.270;10.334;2023-01-31T17:32:43;6.97;;;2.00;;
26474;SDS011;14161;52.270;10.334;2023-01-31T17:37:54;9.85;;;2.67;;
26474;SDS011;14161;52.270;10.334;2023-01-31T17:40:20;7.95;;;2.80;;
26474;SDS011;14161;52.270;10.334;2023-01-31T17:42:45;9.82;;;3.35;;
26474;SDS011;14161;52.270;10.334;2023-01-31T17:45:12;7.18;;;3.33;;
26474;SDS011;14161;52.270;10.334;2023-01-31T17:47:41;8.73;;;2.95;;
26474;SDS011;14161;52.270;10.334;2023-01-31T17:50:12;7.85;;;3.17;;
26474;SDS011;14161;52.270;10.334;2023-01-31T17:52:39;8.55;;;2.75;;
26474;SDS011;14161;52.270;10.334;2023-01-31T17:55:05;8.05;;;2.83;;
26474;SDS011;14161;52.270;10.334;2023-01-31T17:57:31;8.10;;;3.13;;
26474;SDS011;14161;52.270;10.334;2023-01-31T17:59:56;6.13;;;2.55;;
26474;SDS011;14161;52.270;10.334;2023-01-31T18:02:31;9.60;;;2.75;;
26474;SDS011;14161;52.270;10.334;2023-01-31T18:04:57;5.00;;;2.55;;
26474;SDS011;14161;52.270;10.334;2023-01-31T18:07:23;7.55;;;2.88;;
26474;SDS011;14161;52.270;10.334;2023-01-31T18:09:49;7.95;;;2.78;;
26474;SDS011;14161;52.270;10.334;2023-01-31T18:12:14;8.30;;;2.78;;
26474;SDS011;14161;52.270;10.334;2023-01-31T18:14:40;8.70;;;3.10;;
26474;SDS011;14161;52.270;10.334;2023-01-31T18:17:05;7.55;;;3.13;;
26474;SDS011;14161;52.270;10.334;2023-01-31T18:19:31;10.02;;;3.88;;
26474;SDS011;14161;52.270;10.334;2023-01-31T18:21:56;10.13;;;4.13;;
26474;SDS011;14161;52.270;10.334;2023-01-31T18:24:23;9.60;;;3.40;;
26474;SDS011;14161;52.270;10.334;2023-01-31T18:26:49;9.13;;;3.80;;
26474;SDS011;14161;52.270;10.334;2023-01-31T18:36:44;7.63;;;3.17;;
26474;SDS011;14161;52.270;10.334;2023-01-31T18:39:10;14.23;;;3.28;;
26474;SDS011;14161;52.270;10.334;2023-01-31T18:41:35;12.98;;;4.10;;
26474;SDS011;14161;52.270;10.334;2023-01-31T18:44:01;9.68;;;2.33;;
26474;SDS011;14161;52.270;10.334;2023-01-31T18:46:26;10.60;;;2.53;;
26474;SDS011;14161;52.270;10.334;2023-01-31T18:48:53;9.88;;;2.30;;
26474;SDS011;14161;52.270;10.334;2023-01-31T18:51:18;10.30;;;2.60;;
26474;SDS011;14161;52.270;10.334;2023-01-31T18:53:44;12.85;;;3.00;;
26474;SDS011;14161;52.270;10.334;2023-01-31T18:56:11;6.45;;;2.05;;
26474;SDS011;14161;52.270;10.334;2023-01-31T18:58:39;13.57;;;2.20;;
26474;SDS011;14161;52.270;10.334;2023-01-31T19:03:38;12.20;;;2.33;;
26474;SDS011;14161;52.270;10.334;2023-01-31T19:06:05;12.65;;;2.95;;
26474;SDS011;14161;52.270;10.334;2023-01-31T19:08:31;15.05;;;2.75;;
26474;SDS011;14161;52.270;10.334;2023-01-31T19:11:03;11.05;;;2.60;;
26474;SDS011;14161;52.270;10.334;2023-01-31T19:13:33;12.25;;;2.90;;
26474;SDS011;14161;52.270;10.334;2023-01-31T19:16:00;15.68;;;3.45;;
26474;SDS011;14161;52.270;10.334;2023-01-31T19:18:26;7.70;;;2.50;;
26474;SDS011;14161;52.270;10.334;2023-01-31T19:20:52;13.63;;;3.33;;
26474;SDS011;14161;52.270;10.334;2023-01-31T19:23:17;14.85;;;3.60;;
26474;SDS011;14161;52.270;10.334;2023-01-31T19:25:42;13.55;;;2.97;;
26474;SDS011;14161;52.270;10.334;2023-01-31T19:28:09;16.20;;;3.30;;
26474;SDS011;14161;52.270;10.334;2023-01-31T19:30:34;14.20;;;2.92;;
26474;SDS011;14161;52.270;10.334;2023-01-31T19:33:03;12.27;;;2.78;;
26474;SDS011;14161;52.270;10.334;2023-01-31T19:35:30;16.00;;;3.67;;
26474;SDS011;14161;52.270;10.334;2023-01-31T19:37:55;14.00;;;3.55;;
26474;SDS011;14161;52.270;10.334;2023-01-31T19:40:21;16.00;;;3.33;;
26474;SDS011;14161;52.270;10.334;2023-01-31T19:42:46;16.85;;;3.80;;
26474;SDS011;14161;52.270;10.334;2023-01-31T19:45:12;15.20;;;3.35;;
26474;SDS011;14161;52.270;10.334;2023-01-31T19:47:37;16.70;;;3.90;;
26474;SDS011;14161;52.270;10.334;2023-01-31T19:50:03;13.98;;;3.28;;
26474;SDS011;14161;52.270;10.334;2023-01-31T19:52:29;16.90;;;3.58;;
26474;SDS011;14161;52.270;10.334;2023-01-31T19:54:55;20.25;;;3.25;;
26474;SDS011;14161;52.270;10.334;2023-01-31T19:57:21;15.60;;;3.53;;
26474;SDS011;14161;52.270;10.334;2023-01-31T19:59:47;13.60;;;2.92;;
26474;SDS011;14161;52.270;10.334;2023-01-31T20:02:12;18.88;;;3.25;;
26474;SDS011;14161;52.270;10.334;2023-01-31T20:04:38;25.10;;;3.72;;
26474;SDS011;14161;52.270;10.334;2023-01-31T20:07:03;14.98;;;3.20;;
26474;SDS011;14161;52.270;10.334;2023-01-31T20:09:29;15.10;;;3.65;;
26474;SDS011;14161;52.270;10.334;2023-01-31T20:11:55;13.00;;;3.30;;
26474;SDS011;14161;52.270;10.334;2023-01-31T20:14:20;15.50;;;3.63;;
26474;SDS011;14161;52.270;10.334;2023-01-31T20:16:46;23.55;;;3.55;;
26474;SDS011;14161;52.270;10.334;2023-01-31T20:19:11;19.45;;;4.55;;
26474;SDS011;14161;52.270;10.334;2023-01-31T20:21:37;19.63;;;3.40;;
26474;SDS011;14161;52.270;10.334;2023-01-31T20:24:03;17.50;;;3.40;;
26474;SDS011;14161;52.270;10.334;2023-01-31T20:26:29;17.80;;;3.40;;
26474;SDS011;14161;52.270;10.334;2023-01-31T20:28:55;18.98;;;3.70;;
26474;SDS011;14161;52.270;10.334;2023-01-31T20:31:20;19.52;;;4.00;;
26474;SDS011;14161;52.270;10.334;2023-01-31T20:33:46;18.63;;;3.42;;
26474;SDS011;14161;52.270;10.334;2023-01-31T20:36:14;15.68;;;3.45;;
26474;SDS011;14161;52.270;10.334;2023-01-31T20:38:40;18.17;;;3.92;;
26474;SDS011;14161;52.270;10.334;2023-01-31T20:41:05;13.80;;;2.83;;
26474;SDS011;14161;52.270;10.334;2023-01-31T20:43:32;17.40;;;3.53;;
26474;SDS011;14161;52.270;10.334;2023-01-31T20:46:05;16.27;;;4.18;;
26474;SDS011;14161;52.270;10.334;2023-01-31T20:48:33;23.42;;;3.58;;
26474;SDS011;14161;52.270;10.334;2023-01-31T20:50:58;15.35;;;3.53;;
26474;SDS011;14161;52.270;10.334;2023-01-31T20:53:25;16.02;;;3.78;;
26474;SDS011;14161;52.270;10.334;2023-01-31T20:55:53;17.55;;;3.55;;
26474;SDS011;14161;52.270;10.334;2023-01-31T20:58:19;20.58;;;4.13;;
26474;SDS011;14161;52.270;10.334;2023-01-31T21:00:45;16.92;;;3.50;;
26474;SDS011;14161;52.270;10.334;2023-01-31T21:03:10;20.35;;;4.05;;
